sensor_id;sensor_type;location;lat;lon;timestamp;temperature;humidity
16347;DHT22;8283;48.504;13.734;2022-12-10T00:01:55;7.80;68.10
16347;DHT22;8283;48.504;13.734;2022-12-10T00:04:40;7.80;68.20
16347;DHT22;8283;48.504;13.734;2022-12-10T00:07:24;7.80;68.10
16347;DHT22;8283;48.504;13.734;2022-12-10T00:10:08;7.80;68.20
16347;DHT22;8283;48.504;13.734;2022-12-10T00:12:53;7.80;68.10
16347;DHT22;8283;48.504;13.734;2022-12-10T00:15:37;7.80;68.10
16347;DHT22;8283;48.504;13.734;2022-12-10T00:18:21;7.80;68.10
16347;DHT22;8283;48.504;13.734;2022-12-10T00:21:07;7.80;68.10
16347;DHT22;8283;48.504;13.734;2022-12-10T00:23:52;7.80;68.10
16347;DHT22;8283;48.504;13.734;2022-12-10T00:26:38;7.90;68.10
16347;DHT22;8283;48.504;13.734;2022-12-10T00:29:23;7.90;68.10
16347;DHT22;8283;48.504;13.734;2022-12-10T00:32:07;7.90;68.10
16347;DHT22;8283;48.504;13.734;2022-12-10T00:34:51;7.90;68.10
16347;DHT22;8283;48.504;13.734;2022-12-10T00:37:35;7.90;68.10
16347;DHT22;8283;48.504;13.734;2022-12-10T00:40:20;7.90;68.00
16347;DHT22;8283;48.504;13.734;2022-12-10T00:43:04;7.90;67.90
16347;DHT22;8283;48.504;13.734;2022-12-10T00:45:49;7.90;67.90
16347;DHT22;8283;48.504;13.734;2022-12-10T00:48:34;7.90;67.80
16347;DHT22;8283;48.504;13.734;2022-12-10T00:51:23;7.90;67.80
16347;DHT22;8283;48.504;13.734;2022-12-10T00:54:08;7.90;67.90
16347;DHT22;8283;48.504;13.734;2022-12-10T00:56:53;7.90;67.80
16347;DHT22;8283;48.504;13.734;2022-12-10T00:59:38;7.90;67.80
16347;DHT22;8283;48.504;13.734;2022-12-10T01:02:22;7.90;67.90
16347;DHT22;8283;48.504;13.734;2022-12-10T01:05:08;7.90;67.90
16347;DHT22;8283;48.504;13.734;2022-12-10T01:07:52;7.80;67.90
16347;DHT22;8283;48.504;13.734;2022-12-10T01:10:37;7.80;68.00
16347;DHT22;8283;48.504;13.734;2022-12-10T01:13:22;7.80;67.80
16347;DHT22;8283;48.504;13.734;2022-12-10T01:16:08;7.70;67.80
16347;DHT22;8283;48.504;13.734;2022-12-10T01:18:57;7.70;67.90
16347;DHT22;8283;48.504;13.734;2022-12-10T01:21:41;7.70;67.90
16347;DHT22;8283;48.504;13.734;2022-12-10T01:24:27;7.70;67.80
16347;DHT22;8283;48.504;13.734;2022-12-10T01:27:12;7.70;67.90
16347;DHT22;8283;48.504;13.734;2022-12-10T01:29:56;7.70;67.90
16347;DHT22;8283;48.504;13.734;2022-12-10T01:32:40;7.70;68.00
16347;DHT22;8283;48.504;13.734;2022-12-10T01:35:24;7.70;68.00
16347;DHT22;8283;48.504;13.734;2022-12-10T01:38:09;7.70;68.00
16347;DHT22;8283;48.504;13.734;2022-12-10T01:40:53;7.70;68.00
16347;DHT22;8283;48.504;13.734;2022-12-10T01:43:53;7.70;68.00
16347;DHT22;8283;48.504;13.734;2022-12-10T01:46:49;7.70;68.50
16347;DHT22;8283;48.504;13.734;2022-12-10T01:49:39;7.70;68.40
16347;DHT22;8283;48.504;13.734;2022-12-10T01:52:23;7.70;68.20
16347;DHT22;8283;48.504;13.734;2022-12-10T01:58:24;7.70;68.60
16347;DHT22;8283;48.504;13.734;2022-12-10T02:08:02;7.80;68.40
16347;DHT22;8283;48.504;13.734;2022-12-10T02:13:57;7.70;68.30
16347;DHT22;8283;48.504;13.734;2022-12-10T02:16:56;7.70;68.20
16347;DHT22;8283;48.504;13.734;2022-12-10T02:22:30;7.70;68.30
16347;DHT22;8283;48.504;13.734;2022-12-10T02:25:19;7.60;69.10
16347;DHT22;8283;48.504;13.734;2022-12-10T02:31:15;7.60;68.90
16347;DHT22;8283;48.504;13.734;2022-12-10T02:34:04;7.60;68.30
16347;DHT22;8283;48.504;13.734;2022-12-10T02:36:52;7.60;68.30
16347;DHT22;8283;48.504;13.734;2022-12-10T02:39:40;7.60;68.30
16347;DHT22;8283;48.504;13.734;2022-12-10T02:42:29;7.60;68.30
16347;DHT22;8283;48.504;13.734;2022-12-10T02:45:16;7.60;68.30
16347;DHT22;8283;48.504;13.734;2022-12-10T02:48:02;7.60;68.30
16347;DHT22;8283;48.504;13.734;2022-12-10T02:50:53;7.60;68.30
16347;DHT22;8283;48.504;13.734;2022-12-10T02:53:46;7.60;68.20
16347;DHT22;8283;48.504;13.734;2022-12-10T02:59:30;7.60;68.30
16347;DHT22;8283;48.504;13.734;2022-12-10T03:08:40;7.60;68.40
16347;DHT22;8283;48.504;13.734;2022-12-10T03:11:26;7.60;68.30
16347;DHT22;8283;48.504;13.734;2022-12-10T03:14:17;7.50;68.00
16347;DHT22;8283;48.504;13.734;2022-12-10T03:17:03;7.50;68.10
16347;DHT22;8283;48.504;13.734;2022-12-10T03:19:50;7.50;68.00
16347;DHT22;8283;48.504;13.734;2022-12-10T03:22:38;7.50;68.00
16347;DHT22;8283;48.504;13.734;2022-12-10T03:25:25;7.50;68.00
16347;DHT22;8283;48.504;13.734;2022-12-10T03:28:10;7.50;68.00
16347;DHT22;8283;48.504;13.734;2022-12-10T03:30:56;7.50;68.10
16347;DHT22;8283;48.504;13.734;2022-12-10T03:33:42;7.50;68.30
16347;DHT22;8283;48.504;13.734;2022-12-10T03:36:29;7.50;68.30
16347;DHT22;8283;48.504;13.734;2022-12-10T03:39:14;7.50;68.20
16347;DHT22;8283;48.504;13.734;2022-12-10T03:41:59;7.50;68.20
16347;DHT22;8283;48.504;13.734;2022-12-10T03:44:43;7.40;68.20
16347;DHT22;8283;48.504;13.734;2022-12-10T03:47:28;7.40;68.50
16347;DHT22;8283;48.504;13.734;2022-12-10T03:50:12;7.40;68.40
16347;DHT22;8283;48.504;13.734;2022-12-10T03:52:58;7.40;68.40
16347;DHT22;8283;48.504;13.734;2022-12-10T03:55:42;7.40;68.40
16347;DHT22;8283;48.504;13.734;2022-12-10T03:58:26;7.40;68.40
16347;DHT22;8283;48.504;13.734;2022-12-10T04:01:10;7.40;68.50
16347;DHT22;8283;48.504;13.734;2022-12-10T04:03:54;7.40;68.50
16347;DHT22;8283;48.504;13.734;2022-12-10T04:06:40;7.40;68.60
16347;DHT22;8283;48.504;13.734;2022-12-10T04:09:25;7.40;68.50
16347;DHT22;8283;48.504;13.734;2022-12-10T04:12:09;7.40;68.30
16347;DHT22;8283;48.504;13.734;2022-12-10T04:14:53;7.50;68.40
16347;DHT22;8283;48.504;13.734;2022-12-10T04:17:57;7.50;68.40
16347;DHT22;8283;48.504;13.734;2022-12-10T04:20:41;7.50;68.30
16347;DHT22;8283;48.504;13.734;2022-12-10T04:23:44;7.50;68.40
16347;DHT22;8283;48.504;13.734;2022-12-10T04:26:47;7.50;68.40
16347;DHT22;8283;48.504;13.734;2022-12-10T04:29:37;7.50;68.40
16347;DHT22;8283;48.504;13.734;2022-12-10T04:32:23;7.50;68.40
16347;DHT22;8283;48.504;13.734;2022-12-10T04:35:09;7.50;68.40
16347;DHT22;8283;48.504;13.734;2022-12-10T04:37:53;7.50;68.40
16347;DHT22;8283;48.504;13.734;2022-12-10T04:40:38;7.50;68.40
16347;DHT22;8283;48.504;13.734;2022-12-10T04:43:22;7.50;68.40
16347;DHT22;8283;48.504;13.734;2022-12-10T04:46:06;7.50;68.50
16347;DHT22;8283;48.504;13.734;2022-12-10T04:48:50;7.50;68.50
16347;DHT22;8283;48.504;13.734;2022-12-10T04:51:34;7.50;68.50
16347;DHT22;8283;48.504;13.734;2022-12-10T04:54:19;7.50;68.60
16347;DHT22;8283;48.504;13.734;2022-12-10T04:57:04;7.50;68.60
16347;DHT22;8283;48.504;13.734;2022-12-10T04:59:48;7.50;68.90
16347;DHT22;8283;48.504;13.734;2022-12-10T05:02:32;7.50;68.80
16347;DHT22;8283;48.504;13.734;2022-12-10T05:05:16;7.50;68.80
16347;DHT22;8283;48.504;13.734;2022-12-10T05:08:01;7.50;68.80
16347;DHT22;8283;48.504;13.734;2022-12-10T05:10:46;7.50;68.80
16347;DHT22;8283;48.504;13.734;2022-12-10T05:13:30;7.50;69.00
16347;DHT22;8283;48.504;13.734;2022-12-10T05:16:17;7.50;68.90
16347;DHT22;8283;48.504;13.734;2022-12-10T05:19:01;7.50;68.90
16347;DHT22;8283;48.504;13.734;2022-12-10T05:21:46;7.50;68.90
16347;DHT22;8283;48.504;13.734;2022-12-10T05:24:49;7.50;68.80
16347;DHT22;8283;48.504;13.734;2022-12-10T05:27:34;7.50;69.60
16347;DHT22;8283;48.504;13.734;2022-12-10T05:30:19;7.50;68.80
16347;DHT22;8283;48.504;13.734;2022-12-10T05:33:03;7.50;68.90
16347;DHT22;8283;48.504;13.734;2022-12-10T05:35:55;7.60;69.00
16347;DHT22;8283;48.504;13.734;2022-12-10T05:38:40;7.60;69.20
16347;DHT22;8283;48.504;13.734;2022-12-10T05:41:30;7.60;68.90
16347;DHT22;8283;48.504;13.734;2022-12-10T05:44:15;7.60;69.00
16347;DHT22;8283;48.504;13.734;2022-12-10T05:47:00;7.60;69.00
16347;DHT22;8283;48.504;13.734;2022-12-10T05:49:44;7.60;69.00
16347;DHT22;8283;48.504;13.734;2022-12-10T05:52:29;7.70;69.00
16347;DHT22;8283;48.504;13.734;2022-12-10T05:55:13;7.70;68.90
16347;DHT22;8283;48.504;13.734;2022-12-10T05:57:57;7.70;68.90
16347;DHT22;8283;48.504;13.734;2022-12-10T06:00:42;7.70;68.90
16347;DHT22;8283;48.504;13.734;2022-12-10T06:03:27;7.70;68.80
16347;DHT22;8283;48.504;13.734;2022-12-10T06:06:12;7.70;68.70
16347;DHT22;8283;48.504;13.734;2022-12-10T06:08:58;7.70;68.70
16347;DHT22;8283;48.504;13.734;2022-12-10T06:11:42;7.70;68.70
16347;DHT22;8283;48.504;13.734;2022-12-10T06:14:26;7.70;68.70
16347;DHT22;8283;48.504;13.734;2022-12-10T06:17:11;7.70;68.60
16347;DHT22;8283;48.504;13.734;2022-12-10T06:19:55;7.70;68.70
16347;DHT22;8283;48.504;13.734;2022-12-10T06:22:39;7.70;68.70
16347;DHT22;8283;48.504;13.734;2022-12-10T06:25:24;7.70;68.70
16347;DHT22;8283;48.504;13.734;2022-12-10T06:28:09;7.70;68.70
16347;DHT22;8283;48.504;13.734;2022-12-10T06:30:54;7.70;68.70
16347;DHT22;8283;48.504;13.734;2022-12-10T06:33:38;7.80;68.80
16347;DHT22;8283;48.504;13.734;2022-12-10T06:36:23;7.80;68.80
16347;DHT22;8283;48.504;13.734;2022-12-10T06:39:07;7.60;68.60
16347;DHT22;8283;48.504;13.734;2022-12-10T06:41:52;7.80;69.50
16347;DHT22;8283;48.504;13.734;2022-12-10T06:44:37;7.80;68.60
16347;DHT22;8283;48.504;13.734;2022-12-10T06:47:22;7.80;68.70
16347;DHT22;8283;48.504;13.734;2022-12-10T06:50:06;7.70;68.50
16347;DHT22;8283;48.504;13.734;2022-12-10T06:52:51;7.30;68.30
16347;DHT22;8283;48.504;13.734;2022-12-10T06:55:38;7.70;68.60
16347;DHT22;8283;48.504;13.734;2022-12-10T06:58:22;7.80;68.80
16347;DHT22;8283;48.504;13.734;2022-12-10T07:01:10;7.70;68.60
16347;DHT22;8283;48.504;13.734;2022-12-10T07:03:56;7.70;68.70
16347;DHT22;8283;48.504;13.734;2022-12-10T07:06:41;7.70;68.70
16347;DHT22;8283;48.504;13.734;2022-12-10T07:09:26;7.70;68.70
16347;DHT22;8283;48.504;13.734;2022-12-10T07:12:10;7.70;68.70
16347;DHT22;8283;48.504;13.734;2022-12-10T07:14:54;7.70;68.80
16347;DHT22;8283;48.504;13.734;2022-12-10T07:17:39;7.70;68.70
16347;DHT22;8283;48.504;13.734;2022-12-10T07:20:23;7.70;68.70
16347;DHT22;8283;48.504;13.734;2022-12-10T07:23:07;7.70;68.70
16347;DHT22;8283;48.504;13.734;2022-12-10T07:25:54;7.70;68.70
16347;DHT22;8283;48.504;13.734;2022-12-10T07:28:39;7.70;68.90
16347;DHT22;8283;48.504;13.734;2022-12-10T07:31:23;7.70;68.90
16347;DHT22;8283;48.504;13.734;2022-12-10T07:34:08;7.70;68.70
16347;DHT22;8283;48.504;13.734;2022-12-10T07:36:53;7.70;68.90
16347;DHT22;8283;48.504;13.734;2022-12-10T07:39:38;7.70;68.90
16347;DHT22;8283;48.504;13.734;2022-12-10T07:42:23;7.70;69.00
16347;DHT22;8283;48.504;13.734;2022-12-10T07:45:08;7.70;69.00
16347;DHT22;8283;48.504;13.734;2022-12-10T07:47:53;7.70;69.30
16347;DHT22;8283;48.504;13.734;2022-12-10T07:50:37;7.70;69.20
16347;DHT22;8283;48.504;13.734;2022-12-10T07:53:21;7.70;69.20
16347;DHT22;8283;48.504;13.734;2022-12-10T07:56:06;7.70;69.20
16347;DHT22;8283;48.504;13.734;2022-12-10T07:58:52;7.70;69.30
16347;DHT22;8283;48.504;13.734;2022-12-10T08:01:36;7.70;69.30
16347;DHT22;8283;48.504;13.734;2022-12-10T08:04:21;7.80;69.50
16347;DHT22;8283;48.504;13.734;2022-12-10T08:07:05;7.80;69.50
16347;DHT22;8283;48.504;13.734;2022-12-10T08:09:51;7.90;69.60
16347;DHT22;8283;48.504;13.734;2022-12-10T08:12:36;7.90;69.60
16347;DHT22;8283;48.504;13.734;2022-12-10T08:15:20;7.90;69.50
16347;DHT22;8283;48.504;13.734;2022-12-10T08:18:04;8.00;69.60
16347;DHT22;8283;48.504;13.734;2022-12-10T08:20:49;8.00;69.60
16347;DHT22;8283;48.504;13.734;2022-12-10T08:23:34;8.00;69.60
16347;DHT22;8283;48.504;13.734;2022-12-10T08:26:20;8.00;69.50
16347;DHT22;8283;48.504;13.734;2022-12-10T08:29:05;8.00;69.50
16347;DHT22;8283;48.504;13.734;2022-12-10T08:31:49;8.10;69.60
16347;DHT22;8283;48.504;13.734;2022-12-10T08:34:33;8.10;69.70
16347;DHT22;8283;48.504;13.734;2022-12-10T08:37:17;8.10;69.70
16347;DHT22;8283;48.504;13.734;2022-12-10T08:40:02;8.20;69.80
16347;DHT22;8283;48.504;13.734;2022-12-10T08:42:46;8.30;69.90
16347;DHT22;8283;48.504;13.734;2022-12-10T08:45:30;8.30;69.90
16347;DHT22;8283;48.504;13.734;2022-12-10T08:48:15;8.40;70.00
16347;DHT22;8283;48.504;13.734;2022-12-10T08:50:59;8.40;69.80
16347;DHT22;8283;48.504;13.734;2022-12-10T08:53:44;8.50;69.80
16347;DHT22;8283;48.504;13.734;2022-12-10T08:56:28;8.50;69.70
16347;DHT22;8283;48.504;13.734;2022-12-10T08:59:13;8.60;69.70
16347;DHT22;8283;48.504;13.734;2022-12-10T09:01:57;8.60;69.70
16347;DHT22;8283;48.504;13.734;2022-12-10T09:04:41;8.70;69.80
16347;DHT22;8283;48.504;13.734;2022-12-10T09:07:26;8.70;69.70
16347;DHT22;8283;48.504;13.734;2022-12-10T09:10:11;8.80;69.70
16347;DHT22;8283;48.504;13.734;2022-12-10T09:12:55;8.90;69.50
16347;DHT22;8283;48.504;13.734;2022-12-10T09:15:40;8.90;69.40
16347;DHT22;8283;48.504;13.734;2022-12-10T09:18:24;8.90;69.40
16347;DHT22;8283;48.504;13.734;2022-12-10T09:21:12;9.00;69.40
16347;DHT22;8283;48.504;13.734;2022-12-10T09:23:57;9.00;69.30
16347;DHT22;8283;48.504;13.734;2022-12-10T09:26:42;9.10;69.10
16347;DHT22;8283;48.504;13.734;2022-12-10T09:29:27;9.10;69.00
16347;DHT22;8283;48.504;13.734;2022-12-10T09:32:11;9.10;69.00
16347;DHT22;8283;48.504;13.734;2022-12-10T09:34:55;9.10;69.00
16347;DHT22;8283;48.504;13.734;2022-12-10T09:37:39;9.10;69.00
16347;DHT22;8283;48.504;13.734;2022-12-10T09:40:41;9.10;68.90
16347;DHT22;8283;48.504;13.734;2022-12-10T09:43:46;9.20;69.00
16347;DHT22;8283;48.504;13.734;2022-12-10T09:46:43;9.20;69.00
16347;DHT22;8283;48.504;13.734;2022-12-10T09:49:56;9.20;68.90
16347;DHT22;8283;48.504;13.734;2022-12-10T09:52:45;9.30;68.90
16347;DHT22;8283;48.504;13.734;2022-12-10T09:55:36;9.20;68.50
16347;DHT22;8283;48.504;13.734;2022-12-10T09:58:24;9.20;68.50
16347;DHT22;8283;48.504;13.734;2022-12-10T10:01:12;9.20;68.50
16347;DHT22;8283;48.504;13.734;2022-12-10T10:03:58;9.20;68.60
16347;DHT22;8283;48.504;13.734;2022-12-10T10:06:42;9.20;68.60
16347;DHT22;8283;48.504;13.734;2022-12-10T10:09:27;9.20;68.50
16347;DHT22;8283;48.504;13.734;2022-12-10T10:12:16;9.20;68.60
16347;DHT22;8283;48.504;13.734;2022-12-10T10:15:16;9.20;68.70
16347;DHT22;8283;48.504;13.734;2022-12-10T10:18:12;9.20;68.80
16347;DHT22;8283;48.504;13.734;2022-12-10T10:20:58;9.20;68.80
16347;DHT22;8283;48.504;13.734;2022-12-10T10:23:45;9.30;68.80
16347;DHT22;8283;48.504;13.734;2022-12-10T10:26:30;9.30;68.80
16347;DHT22;8283;48.504;13.734;2022-12-10T10:29:17;9.30;68.60
16347;DHT22;8283;48.504;13.734;2022-12-10T10:32:24;9.30;68.70
16347;DHT22;8283;48.504;13.734;2022-12-10T10:35:23;9.40;69.00
16347;DHT22;8283;48.504;13.734;2022-12-10T10:38:23;9.40;69.00
16347;DHT22;8283;48.504;13.734;2022-12-10T10:41:13;9.40;69.00
16347;DHT22;8283;48.504;13.734;2022-12-10T10:44:01;9.50;69.80
16347;DHT22;8283;48.504;13.734;2022-12-10T10:46:49;9.50;69.10
16347;DHT22;8283;48.504;13.734;2022-12-10T10:49:34;9.60;69.10
16347;DHT22;8283;48.504;13.734;2022-12-10T10:52:18;9.60;69.00
16347;DHT22;8283;48.504;13.734;2022-12-10T10:55:03;9.70;68.80
16347;DHT22;8283;48.504;13.734;2022-12-10T10:57:51;9.70;68.70
16347;DHT22;8283;48.504;13.734;2022-12-10T11:00:36;9.70;68.70
16347;DHT22;8283;48.504;13.734;2022-12-10T11:03:21;9.80;68.90
16347;DHT22;8283;48.504;13.734;2022-12-10T11:06:07;9.80;69.10
16347;DHT22;8283;48.504;13.734;2022-12-10T11:08:57;9.90;69.30
16347;DHT22;8283;48.504;13.734;2022-12-10T11:11:42;10.00;69.40
16347;DHT22;8283;48.504;13.734;2022-12-10T11:14:44;10.10;69.90
16347;DHT22;8283;48.504;13.734;2022-12-10T11:17:30;10.10;68.90
16347;DHT22;8283;48.504;13.734;2022-12-10T11:20:27;10.20;69.10
16347;DHT22;8283;48.504;13.734;2022-12-10T11:23:13;10.20;68.90
16347;DHT22;8283;48.504;13.734;2022-12-10T11:26:13;10.30;69.10
16347;DHT22;8283;48.504;13.734;2022-12-10T11:29:26;10.40;68.90
16347;DHT22;8283;48.504;13.734;2022-12-10T11:33:04;10.50;69.00
16347;DHT22;8283;48.504;13.734;2022-12-10T11:45:23;10.70;68.20
16347;DHT22;8283;48.504;13.734;2022-12-10T11:51:50;10.70;67.60
16347;DHT22;8283;48.504;13.734;2022-12-10T12:04:20;10.60;67.20
16347;DHT22;8283;48.504;13.734;2022-12-10T12:10:29;10.40;67.40
16347;DHT22;8283;48.504;13.734;2022-12-10T12:13:34;10.40;67.10
16347;DHT22;8283;48.504;13.734;2022-12-10T12:16:27;10.30;66.70
16347;DHT22;8283;48.504;13.734;2022-12-10T12:19:22;10.20;66.40
16347;DHT22;8283;48.504;13.734;2022-12-10T12:22:21;10.10;67.10
16347;DHT22;8283;48.504;13.734;2022-12-10T12:28:20;10.00;67.70
16347;DHT22;8283;48.504;13.734;2022-12-10T12:31:17;10.00;67.90
16347;DHT22;8283;48.504;13.734;2022-12-10T12:34:15;10.00;68.00
16347;DHT22;8283;48.504;13.734;2022-12-10T12:37:02;10.00;68.20
16347;DHT22;8283;48.504;13.734;2022-12-10T12:40:00;10.00;68.20
16347;DHT22;8283;48.504;13.734;2022-12-10T12:42:59;10.00;67.90
16347;DHT22;8283;48.504;13.734;2022-12-10T12:45:48;10.00;68.00
16347;DHT22;8283;48.504;13.734;2022-12-10T12:51:34;10.00;68.40
16347;DHT22;8283;48.504;13.734;2022-12-10T12:54:21;10.00;68.40
16347;DHT22;8283;48.504;13.734;2022-12-10T12:57:25;10.10;68.60
16347;DHT22;8283;48.504;13.734;2022-12-10T13:00:17;10.10;68.10
16347;DHT22;8283;48.504;13.734;2022-12-10T13:06:26;10.20;68.50
16347;DHT22;8283;48.504;13.734;2022-12-10T13:15:01;10.20;68.00
16347;DHT22;8283;48.504;13.734;2022-12-10T13:18:05;10.20;67.70
16347;DHT22;8283;48.504;13.734;2022-12-10T13:24:09;10.20;67.80
16347;DHT22;8283;48.504;13.734;2022-12-10T13:27:30;10.10;67.80
16347;DHT22;8283;48.504;13.734;2022-12-10T13:30:35;10.10;68.50
16347;DHT22;8283;48.504;13.734;2022-12-10T13:33:21;10.10;67.80
16347;DHT22;8283;48.504;13.734;2022-12-10T13:36:05;10.10;67.80
16347;DHT22;8283;48.504;13.734;2022-12-10T13:48:26;10.00;67.70
16347;DHT22;8283;48.504;13.734;2022-12-10T13:57:38;9.90;67.40
16347;DHT22;8283;48.504;13.734;2022-12-10T14:00:36;9.90;67.50
16347;DHT22;8283;48.504;13.734;2022-12-10T14:03:42;9.80;67.40
16347;DHT22;8283;48.504;13.734;2022-12-10T14:06:34;9.70;67.40
16347;DHT22;8283;48.504;13.734;2022-12-10T14:09:23;9.60;67.50
16347;DHT22;8283;48.504;13.734;2022-12-10T14:12:17;9.60;67.60
16347;DHT22;8283;48.504;13.734;2022-12-10T14:15:08;9.60;67.60
16347;DHT22;8283;48.504;13.734;2022-12-10T14:18:11;9.50;67.70
16347;DHT22;8283;48.504;13.734;2022-12-10T14:20:56;9.40;68.60
16347;DHT22;8283;48.504;13.734;2022-12-10T14:23:46;9.40;67.80
16347;DHT22;8283;48.504;13.734;2022-12-10T14:26:33;9.30;67.80
16347;DHT22;8283;48.504;13.734;2022-12-10T14:29:20;9.30;67.80
16347;DHT22;8283;48.504;13.734;2022-12-10T14:32:05;9.30;67.90
16347;DHT22;8283;48.504;13.734;2022-12-10T14:34:55;9.20;67.90
16347;DHT22;8283;48.504;13.734;2022-12-10T14:37:43;9.10;67.90
16347;DHT22;8283;48.504;13.734;2022-12-10T14:40:38;9.20;68.00
16347;DHT22;8283;48.504;13.734;2022-12-10T14:43:32;9.20;68.00
16347;DHT22;8283;48.504;13.734;2022-12-10T14:46:24;9.20;67.90
16347;DHT22;8283;48.504;13.734;2022-12-10T14:49:16;9.20;68.00
16347;DHT22;8283;48.504;13.734;2022-12-10T14:52:01;9.10;68.00
16347;DHT22;8283;48.504;13.734;2022-12-10T14:54:46;9.10;68.00
16347;DHT22;8283;48.504;13.734;2022-12-10T14:57:39;9.10;68.00
16347;DHT22;8283;48.504;13.734;2022-12-10T15:00:26;9.10;68.00
16347;DHT22;8283;48.504;13.734;2022-12-10T15:03:11;9.10;68.10
16347;DHT22;8283;48.504;13.734;2022-12-10T15:06:06;9.10;68.20
16347;DHT22;8283;48.504;13.734;2022-12-10T15:08:55;9.10;68.20
16347;DHT22;8283;48.504;13.734;2022-12-10T15:11:40;9.10;68.00
16347;DHT22;8283;48.504;13.734;2022-12-10T15:14:27;9.10;68.10
16347;DHT22;8283;48.504;13.734;2022-12-10T15:17:32;9.10;68.00
16347;DHT22;8283;48.504;13.734;2022-12-10T15:20:22;9.10;68.40
16347;DHT22;8283;48.504;13.734;2022-12-10T15:23:15;9.10;68.20
16347;DHT22;8283;48.504;13.734;2022-12-10T15:28:50;9.10;68.20
16347;DHT22;8283;48.504;13.734;2022-12-10T15:31:36;9.00;68.10
16347;DHT22;8283;48.504;13.734;2022-12-10T15:34:20;9.00;68.10
16347;DHT22;8283;48.504;13.734;2022-12-10T15:37:05;9.00;68.20
16347;DHT22;8283;48.504;13.734;2022-12-10T15:39:59;9.00;68.30
16347;DHT22;8283;48.504;13.734;2022-12-10T15:42:44;9.00;68.10
16347;DHT22;8283;48.504;13.734;2022-12-10T15:45:40;8.90;68.10
16347;DHT22;8283;48.504;13.734;2022-12-10T15:48:28;8.90;68.50
16347;DHT22;8283;48.504;13.734;2022-12-10T15:51:14;8.90;69.00
16347;DHT22;8283;48.504;13.734;2022-12-10T15:53:59;8.90;68.20
16347;DHT22;8283;48.504;13.734;2022-12-10T15:56:43;8.90;68.30
16347;DHT22;8283;48.504;13.734;2022-12-10T15:59:27;8.90;68.30
16347;DHT22;8283;48.504;13.734;2022-12-10T16:08:23;8.90;68.50
16347;DHT22;8283;48.504;13.734;2022-12-10T16:11:18;8.90;68.60
16347;DHT22;8283;48.504;13.734;2022-12-10T16:14:04;8.80;68.70
16347;DHT22;8283;48.504;13.734;2022-12-10T16:16:50;8.90;68.50
16347;DHT22;8283;48.504;13.734;2022-12-10T16:19:35;8.80;68.50
16347;DHT22;8283;48.504;13.734;2022-12-10T16:22:21;8.80;68.40
16347;DHT22;8283;48.504;13.734;2022-12-10T16:25:05;8.80;68.50
16347;DHT22;8283;48.504;13.734;2022-12-10T16:27:50;8.80;68.40
16347;DHT22;8283;48.504;13.734;2022-12-10T16:30:36;8.80;68.60
16347;DHT22;8283;48.504;13.734;2022-12-10T16:33:24;8.70;68.50
16347;DHT22;8283;48.504;13.734;2022-12-10T16:36:10;8.70;68.60
16347;DHT22;8283;48.504;13.734;2022-12-10T16:38:55;8.70;68.70
16347;DHT22;8283;48.504;13.734;2022-12-10T16:41:39;8.70;68.60
16347;DHT22;8283;48.504;13.734;2022-12-10T16:44:25;8.60;68.60
16347;DHT22;8283;48.504;13.734;2022-12-10T16:47:11;8.60;68.60
16347;DHT22;8283;48.504;13.734;2022-12-10T16:49:55;8.60;68.70
16347;DHT22;8283;48.504;13.734;2022-12-10T16:52:41;8.60;68.70
16347;DHT22;8283;48.504;13.734;2022-12-10T16:55:26;8.60;68.70
16347;DHT22;8283;48.504;13.734;2022-12-10T16:58:12;8.80;68.70
16347;DHT22;8283;48.504;13.734;2022-12-10T17:00:58;8.60;68.60
16347;DHT22;8283;48.504;13.734;2022-12-10T17:03:43;8.60;68.70
16347;DHT22;8283;48.504;13.734;2022-12-10T17:06:27;8.60;68.60
16347;DHT22;8283;48.504;13.734;2022-12-10T17:09:12;8.60;68.70
16347;DHT22;8283;48.504;13.734;2022-12-10T17:11:57;8.60;68.80
16347;DHT22;8283;48.504;13.734;2022-12-10T17:14:43;8.50;68.70
16347;DHT22;8283;48.504;13.734;2022-12-10T17:17:31;8.50;69.00
16347;DHT22;8283;48.504;13.734;2022-12-10T17:20:17;8.50;68.80
16347;DHT22;8283;48.504;13.734;2022-12-10T17:23:02;8.50;68.90
16347;DHT22;8283;48.504;13.734;2022-12-10T17:25:46;8.50;69.00
16347;DHT22;8283;48.504;13.734;2022-12-10T17:28:31;8.40;68.90
16347;DHT22;8283;48.504;13.734;2022-12-10T17:31:16;8.40;69.00
16347;DHT22;8283;48.504;13.734;2022-12-10T17:34:00;8.70;69.20
16347;DHT22;8283;48.504;13.734;2022-12-10T17:36:44;8.40;69.10
16347;DHT22;8283;48.504;13.734;2022-12-10T17:39:29;8.40;69.30
16347;DHT22;8283;48.504;13.734;2022-12-10T17:42:14;8.30;69.20
16347;DHT22;8283;48.504;13.734;2022-12-10T17:44:58;8.30;69.50
16347;DHT22;8283;48.504;13.734;2022-12-10T17:47:43;8.20;69.30
16347;DHT22;8283;48.504;13.734;2022-12-10T17:50:30;8.20;69.30
16347;DHT22;8283;48.504;13.734;2022-12-10T17:53:17;8.20;69.40
16347;DHT22;8283;48.504;13.734;2022-12-10T17:56:02;8.20;69.50
16347;DHT22;8283;48.504;13.734;2022-12-10T17:58:48;8.20;69.40
16347;DHT22;8283;48.504;13.734;2022-12-10T18:01:33;8.20;69.60
16347;DHT22;8283;48.504;13.734;2022-12-10T18:04:18;8.20;69.70
16347;DHT22;8283;48.504;13.734;2022-12-10T18:07:07;8.10;69.90
16347;DHT22;8283;48.504;13.734;2022-12-10T18:09:52;8.10;69.70
16347;DHT22;8283;48.504;13.734;2022-12-10T18:12:36;8.10;69.70
16347;DHT22;8283;48.504;13.734;2022-12-10T18:15:22;8.10;69.70
16347;DHT22;8283;48.504;13.734;2022-12-10T18:18:09;8.10;70.10
16347;DHT22;8283;48.504;13.734;2022-12-10T18:20:53;8.10;70.70
16347;DHT22;8283;48.504;13.734;2022-12-10T18:23:38;8.00;70.10
16347;DHT22;8283;48.504;13.734;2022-12-10T18:26:23;8.00;70.00
16347;DHT22;8283;48.504;13.734;2022-12-10T18:29:09;8.00;70.00
16347;DHT22;8283;48.504;13.734;2022-12-10T18:31:58;8.00;70.10
16347;DHT22;8283;48.504;13.734;2022-12-10T18:34:44;8.00;70.20
16347;DHT22;8283;48.504;13.734;2022-12-10T18:37:28;8.00;70.10
16347;DHT22;8283;48.504;13.734;2022-12-10T18:40:20;8.00;70.30
16347;DHT22;8283;48.504;13.734;2022-12-10T18:43:05;8.00;70.40
16347;DHT22;8283;48.504;13.734;2022-12-10T18:45:50;8.00;70.10
16347;DHT22;8283;48.504;13.734;2022-12-10T18:48:35;8.00;70.50
16347;DHT22;8283;48.504;13.734;2022-12-10T18:51:20;8.00;70.30
16347;DHT22;8283;48.504;13.734;2022-12-10T18:54:04;8.00;70.30
16347;DHT22;8283;48.504;13.734;2022-12-10T18:56:49;8.00;70.30
16347;DHT22;8283;48.504;13.734;2022-12-10T18:59:33;7.90;70.30
16347;DHT22;8283;48.504;13.734;2022-12-10T19:02:18;7.90;70.30
16347;DHT22;8283;48.504;13.734;2022-12-10T19:05:03;7.90;70.40
16347;DHT22;8283;48.504;13.734;2022-12-10T19:07:49;7.80;70.50
16347;DHT22;8283;48.504;13.734;2022-12-10T19:10:34;7.80;70.20
16347;DHT22;8283;48.504;13.734;2022-12-10T19:13:18;7.80;70.40
16347;DHT22;8283;48.504;13.734;2022-12-10T19:16:08;7.80;70.30
16347;DHT22;8283;48.504;13.734;2022-12-10T19:18:53;7.80;70.20
16347;DHT22;8283;48.504;13.734;2022-12-10T19:21:39;7.80;70.10
16347;DHT22;8283;48.504;13.734;2022-12-10T19:24:23;7.80;70.30
16347;DHT22;8283;48.504;13.734;2022-12-10T19:27:09;7.80;70.20
16347;DHT22;8283;48.504;13.734;2022-12-10T19:29:53;7.80;70.10
16347;DHT22;8283;48.504;13.734;2022-12-10T19:32:37;7.80;70.00